createdAt,value
2018-04-16T00:00:20.744Z,35.10
2018-04-16T00:02:49.042Z,34.97
2018-04-16T00:05:16.592Z,33.40
2018-04-16T00:07:44.909Z,33.47
2018-04-16T00:10:12.461Z,35.10
2018-04-16T00:12:39.991Z,33.43
2018-04-16T00:15:08.332Z,32.90
2018-04-16T00:17:36.860Z,33.90
2018-04-16T00:20:04.375Z,33.50
2018-04-16T00:22:31.903Z,32.53
2018-04-16T00:24:59.424Z,32.73
2018-04-16T00:27:27.715Z,32.50
2018-04-16T00:29:55.232Z,34.97
2018-04-16T00:32:28.316Z,33.17
2018-04-16T00:35:01.486Z,33.50
2018-04-16T00:37:34.761Z,33.77
2018-04-16T00:40:08.056Z,31.93
2018-04-16T00:45:51.175Z,33.60
2018-04-16T00:48:25.233Z,33.33
2018-04-16T00:50:58.417Z,35.97
2018-04-16T00:53:43.709Z,35.47
2018-04-16T00:56:16.893Z,33.20
2018-04-16T00:58:50.163Z,33.53
2018-04-16T01:01:24.009Z,33.97
2018-04-16T01:03:58.455Z,34.10
2018-04-16T01:06:32.348Z,34.10
2018-04-16T01:09:05.559Z,35.10
2018-04-16T01:11:39.604Z,33.40
2018-04-16T01:14:12.840Z,34.47
2018-04-16T01:16:46.135Z,34.27
2018-04-16T01:19:19.363Z,33.17
2018-04-16T01:22:07.456Z,33.40
2018-04-16T01:24:46.476Z,34.57
2018-04-16T01:27:19.757Z,34.37
2018-04-16T01:29:52.881Z,35.70
2018-04-16T01:32:26.171Z,35.30
2018-04-16T01:34:59.281Z,32.30
2018-04-16T01:37:32.421Z,34.87
2018-04-16T01:40:05.694Z,36.80
2018-04-16T01:42:39.673Z,34.40
2018-04-16T01:45:12.755Z,34.90
2018-04-16T01:47:46.017Z,34.97
2018-04-16T01:50:19.361Z,35.93
2018-04-16T01:52:52.872Z,35.83
2018-04-16T01:55:26.939Z,36.80
2018-04-16T01:58:00.123Z,38.37
2018-04-16T02:00:33.244Z,37.20
2018-04-16T02:03:06.397Z,36.53
2018-04-16T02:05:40.156Z,36.00
2018-04-16T02:08:14.183Z,36.27
2018-04-16T02:10:48.076Z,35.17
2018-04-16T02:13:22.245Z,36.63
2018-04-16T02:15:55.319Z,34.47
2018-04-16T02:18:28.476Z,38.00
2018-04-16T02:21:02.367Z,39.83
2018-04-16T02:23:36.279Z,35.87
2018-04-16T02:26:09.487Z,36.07
2018-04-16T02:28:43.383Z,37.30
2018-04-16T02:31:17.497Z,38.17
2018-04-16T02:33:50.645Z,39.37
2018-04-16T02:36:23.825Z,40.07
2018-04-16T02:38:57.074Z,40.50
2018-04-16T02:41:30.233Z,42.13
2018-04-16T02:44:13.426Z,40.67
2018-04-16T02:46:46.593Z,39.40
2018-04-16T02:49:20.595Z,39.57
2018-04-16T02:51:53.833Z,39.83
2018-04-16T02:54:27.844Z,39.53
2018-04-16T02:57:01.284Z,39.60
2018-04-16T02:59:34.787Z,40.93
2018-04-16T03:02:08.112Z,39.73
2018-04-16T03:04:42.093Z,40.53
2018-04-16T03:07:15.268Z,40.87
2018-04-16T03:09:48.586Z,38.70
2018-04-16T03:12:21.743Z,40.90
2018-04-16T03:14:55.063Z,42.90
2018-04-16T03:17:28.251Z,40.87
2018-04-16T03:20:01.981Z,41.57
2018-04-16T03:22:35.912Z,39.87
2018-04-16T03:25:09.261Z,37.83
2018-04-16T03:27:42.385Z,41.00
2018-04-16T03:30:16.405Z,40.07
2018-04-16T03:32:50.396Z,38.90
2018-04-16T03:35:24.296Z,38.47
2018-04-16T03:37:57.549Z,42.53
2018-04-16T03:40:30.698Z,40.97
2018-04-16T03:43:04.749Z,39.93
2018-04-16T03:55:28.392Z,41.83
2018-04-16T03:57:56.437Z,44.83
2018-04-16T04:00:24.032Z,43.90
2018-04-16T04:02:51.556Z,44.03
2018-04-16T04:05:19.160Z,46.17
2018-04-16T04:07:46.840Z,44.37
2018-04-16T04:10:14.375Z,45.20
2018-04-16T04:12:41.931Z,45.43
2018-04-16T04:15:09.472Z,45.20
2018-04-16T04:17:37.025Z,45.53
2018-04-16T04:20:04.535Z,43.90
2018-04-16T04:22:44.658Z,43.80
2018-04-16T04:25:24.096Z,41.63
2018-04-16T04:28:03.480Z,43.43
2018-04-16T04:30:51.152Z,41.37
2018-04-16T04:33:18.686Z,43.27
2018-04-16T04:35:46.993Z,41.27
2018-04-16T04:38:14.567Z,40.87
2018-04-16T04:40:42.117Z,43.17
2018-04-16T04:43:09.778Z,41.97
2018-04-16T04:45:37.360Z,46.70
2018-04-16T04:48:04.900Z,43.53
2018-04-16T04:50:32.561Z,42.83
2018-04-16T04:53:00.159Z,43.70
2018-04-16T04:55:27.694Z,42.70
2018-04-16T04:57:55.227Z,43.03
2018-04-16T05:00:26.585Z,42.07
2018-04-16T05:02:54.108Z,45.77
2018-04-16T05:05:22.410Z,43.10
2018-04-16T05:07:49.953Z,42.90
2018-04-16T05:10:18.247Z,44.33
2018-04-16T05:12:45.813Z,42.17
2018-04-16T05:15:13.339Z,44.60
2018-04-16T05:17:41.660Z,45.90
2018-04-16T05:20:09.208Z,44.63
2018-04-16T05:22:36.726Z,44.27
2018-04-16T05:25:04.237Z,48.87
2018-04-16T05:27:31.785Z,48.33
2018-04-16T05:29:59.297Z,47.17
2018-04-16T05:32:26.894Z,46.80
2018-04-16T05:34:55.106Z,43.97
2018-04-16T05:37:22.636Z,45.80
2018-04-16T05:39:50.152Z,45.10
2018-04-16T05:42:17.681Z,46.87
2018-04-16T05:44:45.201Z,46.00
2018-04-16T05:47:13.518Z,42.67
2018-04-16T05:49:41.032Z,44.80
2018-04-16T05:52:09.352Z,50.13
2018-04-16T05:54:36.883Z,46.57
2018-04-16T05:57:05.229Z,48.93
2018-04-16T05:59:32.885Z,48.37
2018-04-16T06:02:04.464Z,47.83
2018-04-16T06:04:32.765Z,48.63
2018-04-16T06:07:00.271Z,48.40
2018-04-16T06:09:27.835Z,48.23
2018-04-16T06:11:55.386Z,50.07
2018-04-16T06:14:22.907Z,48.53
2018-04-16T06:16:51.072Z,48.57
2018-04-16T06:19:18.596Z,49.30
2018-04-16T06:21:46.144Z,45.83
2018-04-16T06:24:13.727Z,46.97
2018-04-16T06:26:42.040Z,49.73
2018-04-16T06:29:09.564Z,46.83
2018-04-16T06:31:38.000Z,45.70
2018-04-16T06:34:05.527Z,45.43
2018-04-16T06:36:33.098Z,45.67
2018-04-16T06:39:00.730Z,44.03
2018-04-16T06:41:29.017Z,44.83
2018-04-16T06:43:57.322Z,46.23
2018-04-16T06:46:24.977Z,44.43
2018-04-16T06:48:52.567Z,44.53
2018-04-16T06:51:20.160Z,44.23
2018-04-16T06:53:47.798Z,42.57
2018-04-16T06:56:15.330Z,42.07
2018-04-16T06:58:42.868Z,42.43
2018-04-16T07:01:10.435Z,41.57
2018-04-16T07:03:38.011Z,42.07
2018-04-16T07:06:05.552Z,41.40
2018-04-16T07:08:33.140Z,40.47
2018-04-16T07:11:00.692Z,40.63
2018-04-16T07:13:28.231Z,38.13
2018-04-16T07:15:56.820Z,40.07
2018-04-16T07:18:24.382Z,38.10
2018-04-16T07:20:51.933Z,36.42
2018-04-16T07:23:19.549Z,35.55
2018-04-16T07:25:48.055Z,36.20
2018-04-16T07:28:16.335Z,37.38
2018-04-16T07:30:44.633Z,36.67
2018-04-16T07:33:12.162Z,36.83
2018-04-16T07:35:40.523Z,37.22
2018-04-16T07:38:08.123Z,37.65
2018-04-16T07:40:35.657Z,35.90
2018-04-16T07:43:03.201Z,35.40
2018-04-16T07:45:31.753Z,36.40
2018-04-16T07:47:59.284Z,36.17
2018-04-16T07:50:27.564Z,35.20
2018-04-16T07:52:55.695Z,36.30
2018-04-16T07:55:23.216Z,35.30
2018-04-16T07:57:51.361Z,34.58
2018-04-16T08:00:19.990Z,35.95
2018-04-16T08:02:47.531Z,34.40
2018-04-16T08:05:15.054Z,32.70
2018-04-16T08:07:43.370Z,34.53
2018-04-16T08:10:10.897Z,31.65
2018-04-16T08:12:40.028Z,31.42
2018-04-16T08:15:07.619Z,32.45
2018-04-16T08:17:35.855Z,32.78
2018-04-16T08:20:03.369Z,32.53
2018-04-16T08:22:30.908Z,32.83
2018-04-16T08:24:58.451Z,31.30
2018-04-16T08:27:25.974Z,32.92
2018-04-16T08:29:54.293Z,33.30
2018-04-16T08:32:25.692Z,30.92
2018-04-16T08:34:54.013Z,27.85
2018-04-16T08:37:21.540Z,28.55
2018-04-16T08:39:49.851Z,29.87
2018-04-16T08:42:17.386Z,28.33
2018-04-16T08:44:44.994Z,27.92
2018-04-16T08:47:12.567Z,29.10
2018-04-16T08:49:40.116Z,29.55
2018-04-16T08:52:07.663Z,29.02
2018-04-16T08:54:35.330Z,28.55
2018-04-16T08:57:02.888Z,29.30
2018-04-16T08:59:30.475Z,27.15
2018-04-16T09:01:58.015Z,28.20
2018-04-16T09:04:25.534Z,26.45
2018-04-16T09:06:53.520Z,27.37
2018-04-16T09:09:21.059Z,26.98
2018-04-16T09:11:49.393Z,27.58
2018-04-16T09:14:17.002Z,25.08
2018-04-16T09:16:44.568Z,23.73
2018-04-16T09:19:12.201Z,24.48
2018-04-16T09:21:40.592Z,23.38
2018-04-16T09:24:09.693Z,22.92
2018-04-16T09:26:37.210Z,23.00
2018-04-16T09:29:04.763Z,22.58
2018-04-16T09:31:32.304Z,22.15
2018-04-16T09:33:59.866Z,20.83
2018-04-16T09:36:27.430Z,20.92
2018-04-16T09:38:54.948Z,20.30
2018-04-16T09:41:24.058Z,19.35
2018-04-16T09:43:51.583Z,19.23
2018-04-16T09:47:43.696Z,15.90
2018-04-16T09:50:11.240Z,13.98
2018-04-16T09:52:38.772Z,13.57
2018-04-16T09:55:06.307Z,13.50
2018-04-16T09:57:33.843Z,13.60
2018-04-16T10:00:01.459Z,13.88
2018-04-16T10:02:29.240Z,12.55
2018-04-16T10:04:56.821Z,12.18
2018-04-16T10:07:24.754Z,12.77
2018-04-16T10:09:52.288Z,12.52
2018-04-16T10:12:20.594Z,11.52
2018-04-16T10:14:48.824Z,9.90
2018-04-16T10:17:16.368Z,10.00
2018-04-16T10:19:43.892Z,10.23
2018-04-16T10:22:11.434Z,8.77
2018-04-16T10:24:39.716Z,7.50
2018-04-16T10:27:07.231Z,7.05
2018-04-16T10:29:34.921Z,7.45
2018-04-16T10:32:03.223Z,7.03
2018-04-16T10:34:30.796Z,6.37
2018-04-16T10:36:58.391Z,6.25
2018-04-16T10:39:25.925Z,5.68
2018-04-16T10:41:53.452Z,7.57
2018-04-16T10:44:21.735Z,6.70
2018-04-16T10:46:49.860Z,6.60
2018-04-16T10:49:17.460Z,7.45
2018-04-16T10:51:45.752Z,7.18
2018-04-16T10:54:13.285Z,8.02
2018-04-16T10:56:41.583Z,8.93
2018-04-16T10:59:09.131Z,8.30
2018-04-16T11:01:37.412Z,6.80
2018-04-16T11:04:05.736Z,7.87
2018-04-16T11:06:33.332Z,8.02
2018-04-16T11:09:00.876Z,8.50
2018-04-16T11:11:28.605Z,9.52
2018-04-16T11:13:56.499Z,8.25
2018-04-16T11:16:24.845Z,7.72
2018-04-16T11:18:52.350Z,7.70
2018-04-16T11:21:20.421Z,8.00
2018-04-16T11:23:47.960Z,6.70
2018-04-16T11:26:15.577Z,7.32
2018-04-16T11:28:43.109Z,7.45
2018-04-16T11:31:10.635Z,8.63
2018-04-16T11:33:38.172Z,7.72
2018-04-16T11:36:05.680Z,7.12
2018-04-16T11:38:33.241Z,7.18
2018-04-16T11:41:00.765Z,7.12
2018-04-16T11:43:28.300Z,6.20
2018-04-16T11:45:55.821Z,6.80
2018-04-16T11:48:23.354Z,6.05
2018-04-16T11:50:50.895Z,6.12
2018-04-16T11:53:18.406Z,5.90
2018-04-16T11:55:45.963Z,4.62
2018-04-16T11:58:13.501Z,5.97
2018-04-16T12:00:41.065Z,6.35
2018-04-16T12:03:08.583Z,6.93
2018-04-16T12:05:36.118Z,6.40
2018-04-16T12:08:04.409Z,6.07
2018-04-16T12:10:31.946Z,5.47
2018-04-16T12:12:59.473Z,5.70
2018-04-16T12:15:31.344Z,5.82
2018-04-16T12:17:58.872Z,6.78
2018-04-16T12:20:26.391Z,5.90
2018-04-16T12:22:54.685Z,6.82
2018-04-16T12:25:28.030Z,6.68
2018-04-16T12:27:55.696Z,6.03
2018-04-16T12:30:23.223Z,6.72
2018-04-16T12:33:02.560Z,5.75
2018-04-16T12:35:30.060Z,5.72
2018-04-16T12:37:57.694Z,5.85
2018-04-16T12:40:25.319Z,5.57
2018-04-16T12:42:58.916Z,6.37
2018-04-16T12:45:27.524Z,5.75
2018-04-16T12:48:00.838Z,5.35
2018-04-16T12:50:29.123Z,3.78
2018-04-16T13:05:57.439Z,3.80
2018-04-16T13:08:25.732Z,4.03
2018-04-16T13:11:05.229Z,4.20
2018-04-16T13:13:32.770Z,4.93
2018-04-16T13:16:01.072Z,5.43
2018-04-16T13:18:40.509Z,7.25
2018-04-16T13:21:13.599Z,7.43
2018-04-16T13:23:41.161Z,9.00
2018-04-16T13:26:15.480Z,10.02
2018-04-16T13:28:43.109Z,9.35
2018-04-16T13:31:10.644Z,10.27
2018-04-16T13:33:44.573Z,10.40
2018-04-16T13:36:21.602Z,9.85
2018-04-16T13:38:54.903Z,11.45
2018-04-16T13:41:23.384Z,11.57
2018-04-16T13:43:50.944Z,11.95
2018-04-16T13:46:19.251Z,11.38
2018-04-16T13:48:46.793Z,11.12
2018-04-16T13:51:14.361Z,10.20
2018-04-16T13:53:47.546Z,10.10
2018-04-16T13:56:15.089Z,9.68
2018-04-16T13:58:43.399Z,8.82
2018-04-16T14:01:10.957Z,8.32
2018-04-16T14:03:50.127Z,8.73
2018-04-16T14:06:18.253Z,10.30
2018-04-16T14:08:45.861Z,10.25
2018-04-16T14:11:14.007Z,9.40
2018-04-16T14:13:47.717Z,10.68
2018-04-16T14:16:27.204Z,11.45
2018-04-16T14:18:55.523Z,10.73
2018-04-16T14:21:23.038Z,11.23
2018-04-16T14:23:52.303Z,11.38
2018-04-16T14:26:19.843Z,11.20
2018-04-16T14:28:47.391Z,11.23
2018-04-16T14:31:15.594Z,11.00
2018-04-16T14:33:43.175Z,13.95
2018-04-16T14:36:15.584Z,11.45
2018-04-16T14:38:49.759Z,10.55
2018-04-16T14:41:17.305Z,9.32
2018-04-16T14:43:44.843Z,8.90
2018-04-16T14:46:12.377Z,8.57
2018-04-16T14:48:46.519Z,8.38
2018-04-16T14:51:25.932Z,7.60
2018-04-16T14:54:06.043Z,7.25
2018-04-16T14:56:34.404Z,7.93
2018-04-16T14:59:01.981Z,7.95
2018-04-16T15:01:30.483Z,6.68
2018-04-16T15:08:02.449Z,6.43
2018-04-16T15:10:43.056Z,6.37
2018-04-16T15:13:16.700Z,5.37
2018-04-16T15:15:44.233Z,5.35
2018-04-16T15:18:17.632Z,6.05
2018-04-16T15:20:45.218Z,7.18
2018-04-16T15:23:18.880Z,8.30
2018-04-16T15:25:51.188Z,8.80
2018-04-16T15:28:18.732Z,8.07
2018-04-16T15:30:46.327Z,7.72
2018-04-16T15:33:13.880Z,7.72
2018-04-16T15:35:41.433Z,8.07
2018-04-16T15:38:09.030Z,7.12
2018-04-16T15:40:37.640Z,8.07
2018-04-16T15:43:06.001Z,8.18
2018-04-16T15:45:34.425Z,7.30
2018-04-16T15:48:01.960Z,6.47
2018-04-16T15:50:29.520Z,7.32
2018-04-16T15:52:57.824Z,6.35
2018-04-16T15:55:25.356Z,5.75
2018-04-16T15:57:52.893Z,4.90
2018-04-16T16:00:20.447Z,4.20
2018-04-16T16:02:48.645Z,4.20
2018-04-16T16:05:21.358Z,4.20
2018-04-16T16:07:48.947Z,4.55
2018-04-16T16:10:16.890Z,4.75
2018-04-16T16:12:44.402Z,5.32
2018-04-16T16:15:16.849Z,5.25
2018-04-16T16:17:48.426Z,6.37
2018-04-16T16:20:15.969Z,6.60
2018-04-16T16:22:43.483Z,7.40
2018-04-16T16:25:11.033Z,7.50
2018-04-16T16:27:38.559Z,7.47
2018-04-16T16:30:06.110Z,7.80
2018-04-16T16:32:33.652Z,7.62
2018-04-16T16:35:01.222Z,8.27
2018-04-16T16:37:28.732Z,7.95
2018-04-16T16:39:56.663Z,8.07
2018-04-16T16:42:24.856Z,8.43
2018-04-16T16:44:57.238Z,7.60
2018-04-16T16:47:24.786Z,7.50
2018-04-16T16:49:53.894Z,6.80
2018-04-16T16:52:22.195Z,6.30
2018-04-16T16:54:53.954Z,6.87
2018-04-16T16:57:21.772Z,6.80
2018-04-16T16:59:49.333Z,6.90
2018-04-16T17:02:16.921Z,6.70
2018-04-16T17:04:48.410Z,7.55
2018-04-16T17:07:16.835Z,6.95
2018-04-16T17:09:45.724Z,8.80
2018-04-16T17:12:13.831Z,7.97
2018-04-16T17:14:41.377Z,7.28
2018-04-16T17:17:13.781Z,7.22
2018-04-16T17:19:41.512Z,7.97
2018-04-16T17:22:11.111Z,8.27
2018-04-16T17:24:40.313Z,9.23
2018-04-16T17:27:08.704Z,8.50
2018-04-16T17:29:37.034Z,9.15
2018-04-16T17:32:04.557Z,9.70
2018-04-16T17:34:36.443Z,9.40
2018-04-16T17:37:04.008Z,8.98
2018-04-16T17:39:31.557Z,8.20
2018-04-16T17:41:59.688Z,8.50
2018-04-16T17:44:28.031Z,7.87
2018-04-16T17:46:56.142Z,8.00
2018-04-16T17:49:28.718Z,7.62
2018-04-16T17:52:01.592Z,8.43
2018-04-16T17:54:29.928Z,7.53
2018-04-16T17:56:57.500Z,7.53
2018-04-16T17:59:25.093Z,7.50
2018-04-16T18:01:52.816Z,6.90
2018-04-16T18:04:20.938Z,6.72
2018-04-16T18:06:53.314Z,6.30
2018-04-16T18:09:21.658Z,6.20
2018-04-16T18:11:49.206Z,6.43
2018-04-16T18:14:16.773Z,6.07
2018-04-16T18:16:45.535Z,6.12
2018-04-16T18:19:13.085Z,5.97
2018-04-16T18:21:41.415Z,5.80
2018-04-16T18:24:09.034Z,6.30
2018-04-16T18:26:36.592Z,5.90
2018-04-16T18:29:04.670Z,5.82
2018-04-16T18:31:39.923Z,5.95
2018-04-16T18:34:10.087Z,5.87
2018-04-16T18:36:38.565Z,5.90
2018-04-16T18:39:08.557Z,6.10
2018-04-16T18:41:36.915Z,5.53
2018-04-16T18:44:04.444Z,5.53
2018-04-16T18:46:32.696Z,5.87
2018-04-16T18:49:04.176Z,6.32
2018-04-16T18:51:39.288Z,6.25
2018-04-16T18:54:07.592Z,7.00
2018-04-16T18:56:35.164Z,7.10
2018-04-16T18:59:03.136Z,7.40
2018-04-16T19:01:31.185Z,7.15
2018-04-16T19:03:58.754Z,7.72
2018-04-16T19:06:30.241Z,11.00
2018-04-16T19:08:57.857Z,11.10
2018-04-16T19:11:26.736Z,9.05
2018-04-16T19:13:55.788Z,7.90
2018-04-16T19:16:23.356Z,8.52
2018-04-16T19:18:54.781Z,10.00
2018-04-16T19:21:27.956Z,12.43
2018-04-16T19:23:56.053Z,13.13
2018-04-16T19:26:25.259Z,13.55
2018-04-16T19:28:52.816Z,15.95
2018-04-16T19:31:20.370Z,15.65
2018-04-16T19:33:54.649Z,16.25
2018-04-16T19:36:22.967Z,15.60
2018-04-16T19:38:50.558Z,16.27
2018-04-16T19:41:18.562Z,15.32
2018-04-16T19:43:46.913Z,15.90
2018-04-16T19:46:15.317Z,14.98
2018-04-16T19:51:52.653Z,15.98
2018-04-16T19:54:20.190Z,14.98
2018-04-16T19:56:54.426Z,14.98
2018-04-16T19:59:21.997Z,15.30
2018-04-16T20:01:55.479Z,16.02
2018-04-16T20:04:23.100Z,15.70
2018-04-16T20:06:50.696Z,15.93
2018-04-16T20:09:18.262Z,15.02
2018-04-16T20:11:45.821Z,15.48
2018-04-16T20:14:14.735Z,15.52
2018-04-16T20:16:42.272Z,15.93
2018-04-16T20:19:09.793Z,15.48
2018-04-16T20:21:37.334Z,15.18
2018-04-16T20:24:06.611Z,14.82
2018-04-16T20:26:38.100Z,15.30
2018-04-16T20:29:05.676Z,14.32
2018-04-16T20:31:33.989Z,14.52
2018-04-16T20:34:01.669Z,14.60
2018-04-16T20:36:29.218Z,13.82
2018-04-16T20:38:56.813Z,14.27
2018-04-16T20:41:24.350Z,13.82
2018-04-16T20:43:51.896Z,11.50
2018-04-16T20:46:20.425Z,11.23
2018-04-16T20:48:48.539Z,12.25
2018-04-16T20:51:16.126Z,11.43
2018-04-16T20:53:43.676Z,9.52
2018-04-16T20:56:11.516Z,8.90
2018-04-16T20:58:40.496Z,8.43
2018-04-16T21:01:08.821Z,8.57
2018-04-16T21:03:36.341Z,7.62
2018-04-16T21:06:08.761Z,7.28
2018-04-16T21:08:36.268Z,8.00
2018-04-16T21:11:04.613Z,8.13
2018-04-16T21:13:32.255Z,8.00
2018-04-16T21:15:59.849Z,8.32
2018-04-16T21:18:27.408Z,9.38
2018-04-16T21:20:56.008Z,9.20
2018-04-16T21:23:24.301Z,9.10
2018-04-16T21:25:53.413Z,8.97
2018-04-16T21:28:20.948Z,8.93
2018-04-16T21:30:49.251Z,9.55
2018-04-16T21:33:16.784Z,9.25
2018-04-16T21:35:45.073Z,9.40
2018-04-16T21:38:13.370Z,9.20
2018-04-16T21:40:40.880Z,9.73
2018-04-16T21:43:08.403Z,9.90
2018-04-16T21:45:35.928Z,9.70
2018-04-16T21:48:04.352Z,9.95
2018-04-16T21:50:31.919Z,10.05
2018-04-16T21:52:59.863Z,9.65
2018-04-16T21:55:31.706Z,9.13
2018-04-16T21:58:33.019Z,9.57
2018-04-16T22:01:00.546Z,8.90
2018-04-16T22:03:28.068Z,8.73
2018-04-16T22:05:56.281Z,7.70
2018-04-16T22:08:23.821Z,7.45
2018-04-16T22:10:51.369Z,6.90
2018-04-16T22:13:19.200Z,6.70
2018-04-16T22:15:46.768Z,6.47
2018-04-16T22:18:14.310Z,6.53
2018-04-16T22:20:42.450Z,6.18
2018-04-16T22:23:09.976Z,6.43
2018-04-16T22:38:37.562Z,6.13
2018-04-16T22:41:05.075Z,5.83
2018-04-16T22:43:33.406Z,6.37
2018-04-16T22:46:01.035Z,5.57
2018-04-16T22:48:28.634Z,6.47
2018-04-16T22:50:56.169Z,5.93
2018-04-16T22:53:23.839Z,6.12
2018-04-16T22:55:52.396Z,5.62
2018-04-16T22:58:20.672Z,5.90
2018-04-16T23:00:48.223Z,5.20
2018-04-16T23:03:16.504Z,5.83
2018-04-16T23:05:48.793Z,5.23
2018-04-16T23:08:16.311Z,5.63
2018-04-16T23:10:44.343Z,5.70
2018-04-16T23:13:11.869Z,5.70
2018-04-16T23:15:44.118Z,5.20
2018-04-16T23:18:15.982Z,5.77
2018-04-16T23:20:44.276Z,6.43
2018-04-16T23:23:12.578Z,5.60
2018-04-16T23:25:40.113Z,6.30
2018-04-16T23:28:08.401Z,6.20
2018-04-16T23:30:35.936Z,5.80
2018-04-16T23:33:04.222Z,5.87
2018-04-16T23:35:32.509Z,5.83
2018-04-16T23:38:00.052Z,6.53
2018-04-16T23:40:28.328Z,5.57
2018-04-16T23:42:56.650Z,5.73
2018-04-16T23:45:24.163Z,6.23
2018-04-16T23:47:51.693Z,6.00
2018-04-16T23:50:19.981Z,6.00
2018-04-16T23:52:47.532Z,6.20
2018-04-16T23:55:15.052Z,6.00
2018-04-16T23:57:42.621Z,5.80
